sensor_id;sensor_type;location;lat;lon;timestamp;temperature;humidity
21035;DHT22;10676;50.848;3.272;2022-08-05T00:00:21;20.20;99.90
21035;DHT22;10676;50.848;3.272;2022-08-05T00:02:47;20.20;99.90
21035;DHT22;10676;50.848;3.272;2022-08-05T00:05:13;20.30;99.90
21035;DHT22;10676;50.848;3.272;2022-08-05T00:07:38;20.30;99.90
21035;DHT22;10676;50.848;3.272;2022-08-05T00:10:04;20.30;99.90
21035;DHT22;10676;50.848;3.272;2022-08-05T00:12:30;20.40;99.90
21035;DHT22;10676;50.848;3.272;2022-08-05T00:14:56;20.40;99.90
21035;DHT22;10676;50.848;3.272;2022-08-05T00:17:21;20.40;99.90
21035;DHT22;10676;50.848;3.272;2022-08-05T00:19:47;20.50;99.90
21035;DHT22;10676;50.848;3.272;2022-08-05T00:22:13;20.50;99.90
21035;DHT22;10676;50.848;3.272;2022-08-05T00:24:39;20.50;99.90
21035;DHT22;10676;50.848;3.272;2022-08-05T00:27:05;20.50;99.90
21035;DHT22;10676;50.848;3.272;2022-08-05T00:29:30;20.50;99.90
21035;DHT22;10676;50.848;3.272;2022-08-05T00:31:56;20.60;99.90
21035;DHT22;10676;50.848;3.272;2022-08-05T00:34:22;20.60;99.90
21035;DHT22;10676;50.848;3.272;2022-08-05T00:36:48;20.60;99.90
21035;DHT22;10676;50.848;3.272;2022-08-05T00:39:13;20.60;99.90
21035;DHT22;10676;50.848;3.272;2022-08-05T00:41:39;20.60;99.90
21035;DHT22;10676;50.848;3.272;2022-08-05T00:44:05;20.60;99.90
21035;DHT22;10676;50.848;3.272;2022-08-05T00:46:30;20.60;99.90
21035;DHT22;10676;50.848;3.272;2022-08-05T00:48:56;20.50;99.90
21035;DHT22;10676;50.848;3.272;2022-08-05T00:51:22;20.50;99.90
21035;DHT22;10676;50.848;3.272;2022-08-05T00:53:48;20.50;99.90
21035;DHT22;10676;50.848;3.272;2022-08-05T00:56:15;20.40;99.90
21035;DHT22;10676;50.848;3.272;2022-08-05T00:58:41;20.40;99.90
21035;DHT22;10676;50.848;3.272;2022-08-05T01:01:07;20.40;99.90
21035;DHT22;10676;50.848;3.272;2022-08-05T01:03:33;20.40;99.90
21035;DHT22;10676;50.848;3.272;2022-08-05T01:05:59;20.30;99.90
21035;DHT22;10676;50.848;3.272;2022-08-05T01:08:25;20.30;99.90
21035;DHT22;10676;50.848;3.272;2022-08-05T01:10:58;20.30;99.90
21035;DHT22;10676;50.848;3.272;2022-08-05T01:13:44;20.20;99.90
21035;DHT22;10676;50.848;3.272;2022-08-05T01:16:17;20.20;99.90
21035;DHT22;10676;50.848;3.272;2022-08-05T01:18:46;20.10;99.90
21035;DHT22;10676;50.848;3.272;2022-08-05T01:24:09;20.00;99.90
21035;DHT22;10676;50.848;3.272;2022-08-05T01:26:58;19.90;99.90
21035;DHT22;10676;50.848;3.272;2022-08-05T01:29:36;19.90;99.90
21035;DHT22;10676;50.848;3.272;2022-08-05T01:32:06;19.80;99.90
21035;DHT22;10676;50.848;3.272;2022-08-05T01:34:42;19.80;99.90
21035;DHT22;10676;50.848;3.272;2022-08-05T01:37:28;19.70;99.90
21035;DHT22;10676;50.848;3.272;2022-08-05T01:39:57;19.70;99.90
21035;DHT22;10676;50.848;3.272;2022-08-05T01:42:26;19.70;99.90
21035;DHT22;10676;50.848;3.272;2022-08-05T01:44:59;19.60;99.90
21035;DHT22;10676;50.848;3.272;2022-08-05T01:47:27;19.60;99.90
21035;DHT22;10676;50.848;3.272;2022-08-05T01:49:55;19.70;99.90
21035;DHT22;10676;50.848;3.272;2022-08-05T01:52:22;19.70;99.90
21035;DHT22;10676;50.848;3.272;2022-08-05T01:54:55;19.80;99.90
21035;DHT22;10676;50.848;3.272;2022-08-05T01:57:33;19.80;99.90
21035;DHT22;10676;50.848;3.272;2022-08-05T02:00:02;19.80;99.90
21035;DHT22;10676;50.848;3.272;2022-08-05T02:02:30;19.80;99.90
21035;DHT22;10676;50.848;3.272;2022-08-05T02:05:02;19.90;99.90
21035;DHT22;10676;50.848;3.272;2022-08-05T02:07:30;19.90;99.90
21035;DHT22;10676;50.848;3.272;2022-08-05T02:09:57;19.90;99.90
21035;DHT22;10676;50.848;3.272;2022-08-05T02:12:46;19.90;99.90
21035;DHT22;10676;50.848;3.272;2022-08-05T02:15:33;19.90;99.90
21035;DHT22;10676;50.848;3.272;2022-08-05T02:18:05;19.80;99.90
21035;DHT22;10676;50.848;3.272;2022-08-05T02:21:21;19.70;99.90
21035;DHT22;10676;50.848;3.272;2022-08-05T02:23:52;19.70;99.90
21035;DHT22;10676;50.848;3.272;2022-08-05T02:26:38;19.60;99.90
21035;DHT22;10676;50.848;3.272;2022-08-05T02:29:07;19.60;99.90
21035;DHT22;10676;50.848;3.272;2022-08-05T02:31:36;19.50;99.90
21035;DHT22;10676;50.848;3.272;2022-08-05T02:34:08;19.50;99.90
21035;DHT22;10676;50.848;3.272;2022-08-05T02:36:40;19.50;99.90
21035;DHT22;10676;50.848;3.272;2022-08-05T02:39:07;19.40;99.90
21035;DHT22;10676;50.848;3.272;2022-08-05T02:41:34;19.40;99.90
21035;DHT22;10676;50.848;3.272;2022-08-05T02:44:03;19.30;99.90
21035;DHT22;10676;50.848;3.272;2022-08-05T02:46:33;19.20;99.90
21035;DHT22;10676;50.848;3.272;2022-08-05T02:48:59;19.20;99.90
21035;DHT22;10676;50.848;3.272;2022-08-05T02:51:25;19.20;99.90
21035;DHT22;10676;50.848;3.272;2022-08-05T02:53:52;19.20;99.90
21035;DHT22;10676;50.848;3.272;2022-08-05T02:56:18;19.20;99.90
21035;DHT22;10676;50.848;3.272;2022-08-05T02:58:44;19.20;99.90
21035;DHT22;10676;50.848;3.272;2022-08-05T03:01:18;19.20;99.90
21035;DHT22;10676;50.848;3.272;2022-08-05T03:03:48;19.20;99.90
21035;DHT22;10676;50.848;3.272;2022-08-05T03:06:15;19.30;99.90
21035;DHT22;10676;50.848;3.272;2022-08-05T03:08:41;19.30;99.90
21035;DHT22;10676;50.848;3.272;2022-08-05T03:11:22;19.20;99.90
21035;DHT22;10676;50.848;3.272;2022-08-05T03:13:48;19.20;99.90
21035;DHT22;10676;50.848;3.272;2022-08-05T03:16:13;19.30;99.90
21035;DHT22;10676;50.848;3.272;2022-08-05T03:18:39;19.30;99.90
21035;DHT22;10676;50.848;3.272;2022-08-05T03:21:05;19.30;99.90
21035;DHT22;10676;50.848;3.272;2022-08-05T03:23:32;19.30;99.90
21035;DHT22;10676;50.848;3.272;2022-08-05T03:25:58;19.30;99.90
21035;DHT22;10676;50.848;3.272;2022-08-05T03:28:24;19.30;99.90
21035;DHT22;10676;50.848;3.272;2022-08-05T03:30:50;19.30;99.90
21035;DHT22;10676;50.848;3.272;2022-08-05T03:33:16;19.30;99.90
21035;DHT22;10676;50.848;3.272;2022-08-05T03:35:44;19.30;99.90
21035;DHT22;10676;50.848;3.272;2022-08-05T03:38:11;19.20;99.90
21035;DHT22;10676;50.848;3.272;2022-08-05T03:40:43;19.20;99.90
21035;DHT22;10676;50.848;3.272;2022-08-05T03:43:10;19.20;99.90
21035;DHT22;10676;50.848;3.272;2022-08-05T03:45:36;19.10;99.90
21035;DHT22;10676;50.848;3.272;2022-08-05T03:48:02;19.10;99.90
21035;DHT22;10676;50.848;3.272;2022-08-05T03:50:34;18.90;99.90
21035;DHT22;10676;50.848;3.272;2022-08-05T03:53:13;18.80;99.90
21035;DHT22;10676;50.848;3.272;2022-08-05T03:55:45;18.70;99.90
21035;DHT22;10676;50.848;3.272;2022-08-05T03:58:15;18.60;99.90
21035;DHT22;10676;50.848;3.272;2022-08-05T04:00:43;18.50;99.90
21035;DHT22;10676;50.848;3.272;2022-08-05T04:03:11;18.40;99.90
21035;DHT22;10676;50.848;3.272;2022-08-05T04:05:38;18.30;99.90
21035;DHT22;10676;50.848;3.272;2022-08-05T04:08:07;18.20;99.90
21035;DHT22;10676;50.848;3.272;2022-08-05T04:10:35;18.00;99.90
21035;DHT22;10676;50.848;3.272;2022-08-05T04:13:02;18.00;99.90
21035;DHT22;10676;50.848;3.272;2022-08-05T04:15:28;17.90;99.90
21035;DHT22;10676;50.848;3.272;2022-08-05T04:17:54;17.80;99.90
21035;DHT22;10676;50.848;3.272;2022-08-05T04:20:21;17.70;99.90
21035;DHT22;10676;50.848;3.272;2022-08-05T04:22:47;17.60;99.90
21035;DHT22;10676;50.848;3.272;2022-08-05T04:25:13;17.50;99.90
21035;DHT22;10676;50.848;3.272;2022-08-05T04:27:39;17.50;99.90
21035;DHT22;10676;50.848;3.272;2022-08-05T04:30:05;17.40;99.90
21035;DHT22;10676;50.848;3.272;2022-08-05T04:32:31;17.40;99.90
21035;DHT22;10676;50.848;3.272;2022-08-05T04:34:57;17.40;99.90
21035;DHT22;10676;50.848;3.272;2022-08-05T04:37:23;17.30;99.90
21035;DHT22;10676;50.848;3.272;2022-08-05T04:39:48;17.30;99.90
21035;DHT22;10676;50.848;3.272;2022-08-05T04:42:14;17.20;99.90
21035;DHT22;10676;50.848;3.272;2022-08-05T04:44:40;17.20;99.90
21035;DHT22;10676;50.848;3.272;2022-08-05T04:47:05;17.10;99.90
21035;DHT22;10676;50.848;3.272;2022-08-05T04:49:32;17.10;99.90
21035;DHT22;10676;50.848;3.272;2022-08-05T04:51:57;17.10;99.90
21035;DHT22;10676;50.848;3.272;2022-08-05T04:54:23;17.10;99.90
21035;DHT22;10676;50.848;3.272;2022-08-05T04:56:52;17.10;99.90
21035;DHT22;10676;50.848;3.272;2022-08-05T04:59:19;17.20;99.90
21035;DHT22;10676;50.848;3.272;2022-08-05T05:01:45;17.40;99.90
21035;DHT22;10676;50.848;3.272;2022-08-05T05:04:10;17.90;99.90
21035;DHT22;10676;50.848;3.272;2022-08-05T05:06:37;18.40;99.90
21035;DHT22;10676;50.848;3.272;2022-08-05T05:09:02;19.00;99.90
21035;DHT22;10676;50.848;3.272;2022-08-05T05:11:28;19.60;99.90
21035;DHT22;10676;50.848;3.272;2022-08-05T05:13:54;20.10;99.90
21035;DHT22;10676;50.848;3.272;2022-08-05T05:16:19;20.60;99.90
21035;DHT22;10676;50.848;3.272;2022-08-05T05:18:45;21.00;99.90
21035;DHT22;10676;50.848;3.272;2022-08-05T05:21:11;21.50;99.90
21035;DHT22;10676;50.848;3.272;2022-08-05T05:23:36;22.00;99.90
21035;DHT22;10676;50.848;3.272;2022-08-05T05:26:02;22.40;99.90
21035;DHT22;10676;50.848;3.272;2022-08-05T05:28:28;22.80;99.90
21035;DHT22;10676;50.848;3.272;2022-08-05T05:30:54;23.20;99.90
21035;DHT22;10676;50.848;3.272;2022-08-05T05:33:19;23.70;99.90
21035;DHT22;10676;50.848;3.272;2022-08-05T05:35:46;24.10;99.90
21035;DHT22;10676;50.848;3.272;2022-08-05T05:38:12;24.60;99.90
21035;DHT22;10676;50.848;3.272;2022-08-05T05:40:38;25.00;99.90
21035;DHT22;10676;50.848;3.272;2022-08-05T05:43:04;25.50;99.90
21035;DHT22;10676;50.848;3.272;2022-08-05T05:45:30;26.00;99.90
21035;DHT22;10676;50.848;3.272;2022-08-05T05:47:59;26.40;99.90
21035;DHT22;10676;50.848;3.272;2022-08-05T05:50:24;26.70;99.90
21035;DHT22;10676;50.848;3.272;2022-08-05T05:52:50;27.00;99.90
21035;DHT22;10676;50.848;3.272;2022-08-05T05:55:16;27.20;99.90
21035;DHT22;10676;50.848;3.272;2022-08-05T05:57:44;27.50;99.90
21035;DHT22;10676;50.848;3.272;2022-08-05T06:00:13;27.90;99.90
21035;DHT22;10676;50.848;3.272;2022-08-05T06:02:39;28.30;99.90
21035;DHT22;10676;50.848;3.272;2022-08-05T06:05:10;28.60;99.90
21035;DHT22;10676;50.848;3.272;2022-08-05T06:07:36;29.10;99.90
21035;DHT22;10676;50.848;3.272;2022-08-05T06:10:03;29.30;98.60
21035;DHT22;10676;50.848;3.272;2022-08-05T06:12:29;29.50;97.60
21035;DHT22;10676;50.848;3.272;2022-08-05T06:14:55;29.80;96.50
21035;DHT22;10676;50.848;3.272;2022-08-05T06:17:21;30.00;95.60
21035;DHT22;10676;50.848;3.272;2022-08-05T06:19:46;30.10;95.00
21035;DHT22;10676;50.848;3.272;2022-08-05T06:22:22;30.40;94.20
21035;DHT22;10676;50.848;3.272;2022-08-05T06:24:48;30.60;93.80
21035;DHT22;10676;50.848;3.272;2022-08-05T06:27:13;30.70;92.50
21035;DHT22;10676;50.848;3.272;2022-08-05T06:29:39;30.90;91.90
21035;DHT22;10676;50.848;3.272;2022-08-05T06:32:05;31.00;91.20
21035;DHT22;10676;50.848;3.272;2022-08-05T06:34:30;31.10;90.70
21035;DHT22;10676;50.848;3.272;2022-08-05T06:36:56;31.30;90.10
21035;DHT22;10676;50.848;3.272;2022-08-05T06:39:22;31.50;89.40
21035;DHT22;10676;50.848;3.272;2022-08-05T06:41:48;31.70;88.30
21035;DHT22;10676;50.848;3.272;2022-08-05T06:44:14;32.10;86.70
21035;DHT22;10676;50.848;3.272;2022-08-05T06:46:40;32.30;84.60
21035;DHT22;10676;50.848;3.272;2022-08-05T06:49:05;32.50;83.00
21035;DHT22;10676;50.848;3.272;2022-08-05T06:51:31;32.50;82.10
21035;DHT22;10676;50.848;3.272;2022-08-05T06:54:02;32.50;81.60
21035;DHT22;10676;50.848;3.272;2022-08-05T06:56:29;32.50;82.00
21035;DHT22;10676;50.848;3.272;2022-08-05T06:58:55;32.40;80.60
21035;DHT22;10676;50.848;3.272;2022-08-05T07:01:20;32.40;80.30
21035;DHT22;10676;50.848;3.272;2022-08-05T07:03:46;32.70;79.30
21035;DHT22;10676;50.848;3.272;2022-08-05T07:06:12;33.10;78.00
21035;DHT22;10676;50.848;3.272;2022-08-05T07:08:37;33.20;76.50
21035;DHT22;10676;50.848;3.272;2022-08-05T07:11:04;33.20;76.10
21035;DHT22;10676;50.848;3.272;2022-08-05T07:13:33;32.90;76.00
21035;DHT22;10676;50.848;3.272;2022-08-05T07:16:17;32.20;77.50
21035;DHT22;10676;50.848;3.272;2022-08-05T07:19:02;31.40;80.20
21035;DHT22;10676;50.848;3.272;2022-08-05T07:21:28;30.60;82.30
21035;DHT22;10676;50.848;3.272;2022-08-05T07:23:53;30.00;84.10
21035;DHT22;10676;50.848;3.272;2022-08-05T07:26:19;29.40;85.70
21035;DHT22;10676;50.848;3.272;2022-08-05T07:28:44;28.90;86.30
21035;DHT22;10676;50.848;3.272;2022-08-05T07:31:10;28.40;88.30
21035;DHT22;10676;50.848;3.272;2022-08-05T07:33:36;28.00;89.70
21035;DHT22;10676;50.848;3.272;2022-08-05T07:36:01;27.80;90.30
21035;DHT22;10676;50.848;3.272;2022-08-05T07:38:27;28.10;89.30
21035;DHT22;10676;50.848;3.272;2022-08-05T07:40:53;28.60;87.80
21035;DHT22;10676;50.848;3.272;2022-08-05T07:43:18;29.20;84.90
21035;DHT22;10676;50.848;3.272;2022-08-05T07:45:44;30.10;80.50
21035;DHT22;10676;50.848;3.272;2022-08-05T07:48:10;30.60;78.30
21035;DHT22;10676;50.848;3.272;2022-08-05T07:50:36;30.30;77.50
21035;DHT22;10676;50.848;3.272;2022-08-05T07:53:02;29.90;77.80
21035;DHT22;10676;50.848;3.272;2022-08-05T07:55:28;29.90;75.00
21035;DHT22;10676;50.848;3.272;2022-08-05T07:57:56;30.20;73.90
21035;DHT22;10676;50.848;3.272;2022-08-05T08:00:22;30.80;73.40
21035;DHT22;10676;50.848;3.272;2022-08-05T08:02:47;31.50;70.50
21035;DHT22;10676;50.848;3.272;2022-08-05T08:05:14;32.10;68.20
21035;DHT22;10676;50.848;3.272;2022-08-05T08:07:40;32.90;66.20
21035;DHT22;10676;50.848;3.272;2022-08-05T08:10:06;33.40;65.10
21035;DHT22;10676;50.848;3.272;2022-08-05T08:12:32;33.90;62.60
21035;DHT22;10676;50.848;3.272;2022-08-05T08:14:57;34.30;61.40
21035;DHT22;10676;50.848;3.272;2022-08-05T08:17:24;34.60;59.00
21035;DHT22;10676;50.848;3.272;2022-08-05T08:19:49;35.00;58.20
21035;DHT22;10676;50.848;3.272;2022-08-05T08:22:15;35.20;57.40
21035;DHT22;10676;50.848;3.272;2022-08-05T08:24:41;35.50;57.00
21035;DHT22;10676;50.848;3.272;2022-08-05T08:27:07;35.90;56.10
21035;DHT22;10676;50.848;3.272;2022-08-05T08:29:32;36.20;55.30
21035;DHT22;10676;50.848;3.272;2022-08-05T08:31:58;36.20;55.00
21035;DHT22;10676;50.848;3.272;2022-08-05T08:34:25;36.50;53.90
21035;DHT22;10676;50.848;3.272;2022-08-05T08:36:51;36.80;52.20
21035;DHT22;10676;50.848;3.272;2022-08-05T08:39:17;37.10;52.30
21035;DHT22;10676;50.848;3.272;2022-08-05T08:41:46;37.30;51.80
21035;DHT22;10676;50.848;3.272;2022-08-05T08:44:14;37.10;52.30
21035;DHT22;10676;50.848;3.272;2022-08-05T08:46:43;36.10;53.60
21035;DHT22;10676;50.848;3.272;2022-08-05T08:49:14;34.80;55.90
21035;DHT22;10676;50.848;3.272;2022-08-05T08:51:42;33.40;58.30
21035;DHT22;10676;50.848;3.272;2022-08-05T08:54:11;32.00;60.80
21035;DHT22;10676;50.848;3.272;2022-08-05T08:56:40;30.70;64.20
21035;DHT22;10676;50.848;3.272;2022-08-05T08:59:06;29.80;66.00
21035;DHT22;10676;50.848;3.272;2022-08-05T09:01:32;29.20;67.50
21035;DHT22;10676;50.848;3.272;2022-08-05T09:03:58;29.00;68.40
21035;DHT22;10676;50.848;3.272;2022-08-05T09:06:29;28.90;69.00
21035;DHT22;10676;50.848;3.272;2022-08-05T09:08:57;29.00;69.20
21035;DHT22;10676;50.848;3.272;2022-08-05T09:11:23;29.40;69.40
21035;DHT22;10676;50.848;3.272;2022-08-05T09:13:49;30.00;66.90
21035;DHT22;10676;50.848;3.272;2022-08-05T09:16:14;30.50;65.60
21035;DHT22;10676;50.848;3.272;2022-08-05T09:18:40;31.10;64.20
21035;DHT22;10676;50.848;3.272;2022-08-05T09:21:08;31.30;63.60
21035;DHT22;10676;50.848;3.272;2022-08-05T09:23:34;31.20;63.50
21035;DHT22;10676;50.848;3.272;2022-08-05T09:26:12;30.90;64.10
21035;DHT22;10676;50.848;3.272;2022-08-05T09:28:42;31.20;63.70
21035;DHT22;10676;50.848;3.272;2022-08-05T09:31:10;31.70;62.70
21035;DHT22;10676;50.848;3.272;2022-08-05T09:33:48;32.50;60.70
21035;DHT22;10676;50.848;3.272;2022-08-05T09:36:14;33.10;60.10
21035;DHT22;10676;50.848;3.272;2022-08-05T09:38:55;33.70;58.10
21035;DHT22;10676;50.848;3.272;2022-08-05T09:41:21;34.70;56.60
21035;DHT22;10676;50.848;3.272;2022-08-05T09:43:47;35.30;53.60
21035;DHT22;10676;50.848;3.272;2022-08-05T09:48:49;36.50;51.10
21035;DHT22;10676;50.848;3.272;2022-08-05T09:51:16;36.40;51.30
21035;DHT22;10676;50.848;3.272;2022-08-05T09:53:50;35.60;52.90
21035;DHT22;10676;50.848;3.272;2022-08-05T09:56:30;34.50;54.90
21035;DHT22;10676;50.848;3.272;2022-08-05T09:59:03;33.10;57.30
21035;DHT22;10676;50.848;3.272;2022-08-05T10:01:29;31.80;60.20
21035;DHT22;10676;50.848;3.272;2022-08-05T10:04:03;30.70;62.50
21035;DHT22;10676;50.848;3.272;2022-08-05T10:06:30;29.90;64.20
21035;DHT22;10676;50.848;3.272;2022-08-05T10:09:17;29.50;65.30
21035;DHT22;10676;50.848;3.272;2022-08-05T10:11:44;29.30;65.60
21035;DHT22;10676;50.848;3.272;2022-08-05T10:14:24;28.90;66.80
21035;DHT22;10676;50.848;3.272;2022-08-05T10:16:51;28.50;67.30
21035;DHT22;10676;50.848;3.272;2022-08-05T10:19:17;28.30;68.40
21035;DHT22;10676;50.848;3.272;2022-08-05T10:21:43;28.70;67.90
21035;DHT22;10676;50.848;3.272;2022-08-05T10:24:15;29.50;65.00
21035;DHT22;10676;50.848;3.272;2022-08-05T10:26:43;30.10;62.60
21035;DHT22;10676;50.848;3.272;2022-08-05T10:29:09;30.40;62.60
21035;DHT22;10676;50.848;3.272;2022-08-05T10:31:36;30.30;62.70
21035;DHT22;10676;50.848;3.272;2022-08-05T10:34:05;30.40;62.40
21035;DHT22;10676;50.848;3.272;2022-08-05T10:36:32;30.70;61.00
21035;DHT22;10676;50.848;3.272;2022-08-05T10:39:03;31.00;59.90
21035;DHT22;10676;50.848;3.272;2022-08-05T10:41:58;31.00;59.70
21035;DHT22;10676;50.848;3.272;2022-08-05T10:44:27;30.90;60.80
21035;DHT22;10676;50.848;3.272;2022-08-05T10:46:55;31.10;59.70
21035;DHT22;10676;50.848;3.272;2022-08-05T10:49:22;31.00;59.30
21035;DHT22;10676;50.848;3.272;2022-08-05T10:51:51;30.60;59.70
21035;DHT22;10676;50.848;3.272;2022-08-05T10:54:23;30.30;61.30
21035;DHT22;10676;50.848;3.272;2022-08-05T10:56:51;30.80;60.10
21035;DHT22;10676;50.848;3.272;2022-08-05T10:59:28;31.80;57.10
21035;DHT22;10676;50.848;3.272;2022-08-05T11:02:11;31.90;56.90
21035;DHT22;10676;50.848;3.272;2022-08-05T11:04:47;31.40;57.60
21035;DHT22;10676;50.848;3.272;2022-08-05T11:07:19;30.70;58.90
21035;DHT22;10676;50.848;3.272;2022-08-05T11:09:50;30.10;59.80
21035;DHT22;10676;50.848;3.272;2022-08-05T11:15:25;29.40;60.40
21035;DHT22;10676;50.848;3.272;2022-08-05T11:18:04;29.00;62.00
21035;DHT22;10676;50.848;3.272;2022-08-05T11:20:35;29.00;62.40
21035;DHT22;10676;50.848;3.272;2022-08-05T11:26:06;30.60;58.30
21035;DHT22;10676;50.848;3.272;2022-08-05T11:33:31;30.60;58.70
21035;DHT22;10676;50.848;3.272;2022-08-05T11:36:03;30.50;58.70
21035;DHT22;10676;50.848;3.272;2022-08-05T11:41:23;29.70;59.40
21035;DHT22;10676;50.848;3.272;2022-08-05T11:44:04;29.10;60.10
21035;DHT22;10676;50.848;3.272;2022-08-05T11:46:41;28.50;61.40
21035;DHT22;10676;50.848;3.272;2022-08-05T11:49:10;28.20;61.90
21035;DHT22;10676;50.848;3.272;2022-08-05T11:51:43;28.40;61.20
21035;DHT22;10676;50.848;3.272;2022-08-05T11:54:11;28.80;60.60
21035;DHT22;10676;50.848;3.272;2022-08-05T11:56:47;29.30;59.80
21035;DHT22;10676;50.848;3.272;2022-08-05T12:04:21;30.40;59.50
21035;DHT22;10676;50.848;3.272;2022-08-05T12:06:47;30.10;60.00
21035;DHT22;10676;50.848;3.272;2022-08-05T12:09:17;29.80;61.20
21035;DHT22;10676;50.848;3.272;2022-08-05T12:11:44;29.70;61.00
21035;DHT22;10676;50.848;3.272;2022-08-05T12:14:11;29.90;60.10
21035;DHT22;10676;50.848;3.272;2022-08-05T12:16:39;30.30;59.80
21035;DHT22;10676;50.848;3.272;2022-08-05T12:19:07;30.60;58.60
21035;DHT22;10676;50.848;3.272;2022-08-05T12:21:35;30.70;58.70
21035;DHT22;10676;50.848;3.272;2022-08-05T12:24:06;30.50;58.50
21035;DHT22;10676;50.848;3.272;2022-08-05T12:26:48;30.20;58.70
21035;DHT22;10676;50.848;3.272;2022-08-05T12:29:22;30.20;59.10
21035;DHT22;10676;50.848;3.272;2022-08-05T12:31:52;30.60;57.30
21035;DHT22;10676;50.848;3.272;2022-08-05T12:34:20;31.10;57.10
21035;DHT22;10676;50.848;3.272;2022-08-05T12:36:49;31.70;56.00
21035;DHT22;10676;50.848;3.272;2022-08-05T12:39:15;32.40;54.40
21035;DHT22;10676;50.848;3.272;2022-08-05T12:41:41;32.70;52.90
21035;DHT22;10676;50.848;3.272;2022-08-05T12:44:09;32.90;52.70
21035;DHT22;10676;50.848;3.272;2022-08-05T12:46:39;33.00;52.50
21035;DHT22;10676;50.848;3.272;2022-08-05T12:49:12;33.00;51.70
21035;DHT22;10676;50.848;3.272;2022-08-05T12:51:49;32.90;52.30
21035;DHT22;10676;50.848;3.272;2022-08-05T12:54:21;32.60;53.00
21035;DHT22;10676;50.848;3.272;2022-08-05T12:56:57;32.30;53.70
21035;DHT22;10676;50.848;3.272;2022-08-05T13:00:18;32.10;53.40
21035;DHT22;10676;50.848;3.272;2022-08-05T13:02:24;31.90;53.70
21035;DHT22;10676;50.848;3.272;2022-08-05T13:04:51;31.80;53.00
21035;DHT22;10676;50.848;3.272;2022-08-05T13:07:22;31.70;52.80
21035;DHT22;10676;50.848;3.272;2022-08-05T13:09:51;31.70;53.00
21035;DHT22;10676;50.848;3.272;2022-08-05T13:12:19;32.00;53.20
21035;DHT22;10676;50.848;3.272;2022-08-05T13:14:50;32.30;53.30
21035;DHT22;10676;50.848;3.272;2022-08-05T13:17:24;32.60;52.10
21035;DHT22;10676;50.848;3.272;2022-08-05T13:22:36;32.60;51.70
21035;DHT22;10676;50.848;3.272;2022-08-05T13:25:05;32.00;53.20
21035;DHT22;10676;50.848;3.272;2022-08-05T13:27:52;31.50;53.80
21035;DHT22;10676;50.848;3.272;2022-08-05T13:30:20;31.30;55.00
21035;DHT22;10676;50.848;3.272;2022-08-05T13:32:47;31.40;54.30
21035;DHT22;10676;50.848;3.272;2022-08-05T13:35:14;31.60;54.30
21035;DHT22;10676;50.848;3.272;2022-08-05T13:37:40;31.80;53.90
21035;DHT22;10676;50.848;3.272;2022-08-05T13:40:07;32.10;53.00
21035;DHT22;10676;50.848;3.272;2022-08-05T13:42:33;32.40;52.10
21035;DHT22;10676;50.848;3.272;2022-08-05T13:44:59;32.40;51.50
21035;DHT22;10676;50.848;3.272;2022-08-05T13:47:25;32.00;52.60
21035;DHT22;10676;50.848;3.272;2022-08-05T13:49:51;31.70;53.20
21035;DHT22;10676;50.848;3.272;2022-08-05T13:52:22;31.50;52.70
21035;DHT22;10676;50.848;3.272;2022-08-05T13:54:48;31.40;52.30
21035;DHT22;10676;50.848;3.272;2022-08-05T13:57:14;31.30;52.00
21035;DHT22;10676;50.848;3.272;2022-08-05T13:59:41;31.20;51.40
21035;DHT22;10676;50.848;3.272;2022-08-05T14:02:09;31.30;52.50
21035;DHT22;10676;50.848;3.272;2022-08-05T14:04:40;31.40;52.60
21035;DHT22;10676;50.848;3.272;2022-08-05T14:07:27;31.50;52.50
21035;DHT22;10676;50.848;3.272;2022-08-05T14:09:53;31.30;52.60
21035;DHT22;10676;50.848;3.272;2022-08-05T14:12:19;31.10;52.40
21035;DHT22;10676;50.848;3.272;2022-08-05T14:14:45;30.90;51.60
21035;DHT22;10676;50.848;3.272;2022-08-05T14:17:10;30.70;52.00
21035;DHT22;10676;50.848;3.272;2022-08-05T14:19:36;30.60;52.70
21035;DHT22;10676;50.848;3.272;2022-08-05T14:22:02;30.60;51.60
21035;DHT22;10676;50.848;3.272;2022-08-05T14:24:28;30.70;52.60
21035;DHT22;10676;50.848;3.272;2022-08-05T14:26:53;30.80;53.00
21035;DHT22;10676;50.848;3.272;2022-08-05T14:29:19;30.70;53.30
21035;DHT22;10676;50.848;3.272;2022-08-05T14:31:45;30.60;53.30
21035;DHT22;10676;50.848;3.272;2022-08-05T14:34:10;30.60;51.80
21035;DHT22;10676;50.848;3.272;2022-08-05T14:36:36;30.50;51.90
21035;DHT22;10676;50.848;3.272;2022-08-05T14:39:03;30.30;52.10
21035;DHT22;10676;50.848;3.272;2022-08-05T14:41:30;30.00;52.20
21035;DHT22;10676;50.848;3.272;2022-08-05T14:43:56;29.70;53.00
21035;DHT22;10676;50.848;3.272;2022-08-05T14:46:23;29.30;53.10
21035;DHT22;10676;50.848;3.272;2022-08-05T14:48:49;29.10;54.20
21035;DHT22;10676;50.848;3.272;2022-08-05T14:51:15;29.00;53.00
21035;DHT22;10676;50.848;3.272;2022-08-05T14:53:41;28.90;52.80
21035;DHT22;10676;50.848;3.272;2022-08-05T14:56:07;28.50;54.70
21035;DHT22;10676;50.848;3.272;2022-08-05T14:58:32;28.10;56.00
21035;DHT22;10676;50.848;3.272;2022-08-05T15:00:58;27.60;57.10
21035;DHT22;10676;50.848;3.272;2022-08-05T15:03:23;27.40;58.00
21035;DHT22;10676;50.848;3.272;2022-08-05T15:05:49;27.30;56.80
21035;DHT22;10676;50.848;3.272;2022-08-05T15:08:15;27.30;56.70
21035;DHT22;10676;50.848;3.272;2022-08-05T15:10:40;27.10;56.30
21035;DHT22;10676;50.848;3.272;2022-08-05T15:13:08;26.90;57.10
21035;DHT22;10676;50.848;3.272;2022-08-05T15:15:34;26.70;58.40
21035;DHT22;10676;50.848;3.272;2022-08-05T15:17:59;26.60;58.90
21035;DHT22;10676;50.848;3.272;2022-08-05T15:20:25;26.50;58.80
21035;DHT22;10676;50.848;3.272;2022-08-05T15:22:51;26.40;59.60
21035;DHT22;10676;50.848;3.272;2022-08-05T15:25:17;26.40;59.50
21035;DHT22;10676;50.848;3.272;2022-08-05T15:27:42;26.60;60.50
21035;DHT22;10676;50.848;3.272;2022-08-05T15:30:09;26.80;60.30
21035;DHT22;10676;50.848;3.272;2022-08-05T15:32:35;27.20;58.80
21035;DHT22;10676;50.848;3.272;2022-08-05T15:35:02;27.50;59.00
21035;DHT22;10676;50.848;3.272;2022-08-05T15:37:28;28.00;57.60
21035;DHT22;10676;50.848;3.272;2022-08-05T15:39:53;28.40;56.90
21035;DHT22;10676;50.848;3.272;2022-08-05T15:42:22;28.70;56.10
21035;DHT22;10676;50.848;3.272;2022-08-05T15:44:48;28.80;55.20
21035;DHT22;10676;50.848;3.272;2022-08-05T15:47:14;28.80;54.70
21035;DHT22;10676;50.848;3.272;2022-08-05T15:49:40;28.60;54.70
21035;DHT22;10676;50.848;3.272;2022-08-05T15:52:05;28.20;54.90
21035;DHT22;10676;50.848;3.272;2022-08-05T15:54:31;27.90;55.10
21035;DHT22;10676;50.848;3.272;2022-08-05T15:56:57;27.60;55.50
21035;DHT22;10676;50.848;3.272;2022-08-05T15:59:22;27.30;56.00
21035;DHT22;10676;50.848;3.272;2022-08-05T16:01:49;27.20;55.00
21035;DHT22;10676;50.848;3.272;2022-08-05T16:04:15;27.30;54.90